createdAt,value
2023-03-24T00:01:34.651Z,99411.23
2023-03-24T00:04:05.256Z,99412.48
2023-03-24T00:06:35.152Z,99412.33
2023-03-24T00:09:05.097Z,99413.55
2023-03-24T00:11:59.033Z,99417.20
2023-03-24T00:14:32.457Z,99415.25
2023-03-24T00:17:01.950Z,99412.13
2023-03-24T00:19:30.882Z,99415.21
2023-03-24T00:22:01.692Z,99407.33
2023-03-24T00:24:30.719Z,99403.05
2023-03-24T00:27:03.730Z,99395.54
2023-03-24T00:29:32.682Z,99395.67
2023-03-24T00:32:02.012Z,99399.70
2023-03-24T00:34:30.467Z,99397.29
2023-03-24T00:36:58.975Z,99397.54
2023-03-24T00:39:27.468Z,99395.31
2023-03-24T00:41:59.105Z,99391.71
2023-03-24T00:44:29.346Z,99387.80
2023-03-24T00:46:57.940Z,99390.67
2023-03-24T00:49:48.589Z,99385.99
2023-03-24T00:52:23.237Z,99385.55
2023-03-24T00:54:55.616Z,99383.73
2023-03-24T00:57:26.597Z,99380.30
2023-03-24T00:59:58.152Z,99379.91
2023-03-24T01:02:29.426Z,99376.58
2023-03-24T01:05:00.048Z,99369.45
2023-03-24T01:07:33.975Z,99367.84
2023-03-24T01:10:02.942Z,99365.31
2023-03-24T01:12:35.585Z,99363.20
2023-03-24T01:15:09.002Z,99362.33
2023-03-24T01:17:37.554Z,99361.63
2023-03-24T01:20:09.030Z,99362.97
2023-03-24T01:22:40.306Z,99360.84
2023-03-24T01:25:12.019Z,99356.67
2023-03-24T01:27:40.736Z,99353.55
2023-03-24T01:30:12.623Z,99346.13
2023-03-24T01:32:43.144Z,99349.39
2023-03-24T01:35:12.083Z,99348.63
2023-03-24T01:37:41.737Z,99351.11
2023-03-24T01:40:18.162Z,99349.10
2023-03-24T01:42:46.897Z,99349.48
2023-03-24T01:45:40.728Z,99349.20
2023-03-24T01:48:17.045Z,99342.86
2023-03-24T01:50:52.043Z,99338.71
2023-03-24T01:53:22.131Z,99338.63
2023-03-24T01:55:53.024Z,99335.65
2023-03-24T01:58:22.213Z,99336.70
2023-03-24T02:00:51.020Z,99335.23
2023-03-24T02:03:24.532Z,99330.09
2023-03-24T02:05:55.421Z,99326.87
2023-03-24T02:08:46.312Z,99326.48
2023-03-24T02:11:16.762Z,99331.40
2023-03-24T02:13:46.425Z,99329.46
2023-03-24T02:16:53.044Z,99324.77
2023-03-24T02:19:45.373Z,99322.73
2023-03-24T02:22:51.148Z,99320.60
2023-03-24T02:25:19.559Z,99318.05
2023-03-24T02:28:07.527Z,99309.23
2023-03-24T02:30:44.319Z,99307.83
2023-03-24T02:34:01.465Z,99304.45
2023-03-24T02:36:51.504Z,99299.86
2023-03-24T02:39:48.970Z,99296.19
2023-03-24T02:42:46.548Z,99295.14
2023-03-24T02:45:33.464Z,99294.80
2023-03-24T02:48:13.812Z,99290.69
2023-03-24T02:51:06.625Z,99290.73
2023-03-24T02:54:14.910Z,99286.91
2023-03-24T02:56:42.362Z,99282.66
2023-03-24T02:59:56.844Z,99280.79
2023-03-24T03:02:30.856Z,99282.04
2023-03-24T03:05:15.411Z,99282.59
2023-03-24T03:07:47.445Z,99280.23
2023-03-24T03:10:28.241Z,99279.66
2023-03-24T03:13:02.713Z,99274.34
2023-03-24T03:15:40.047Z,99275.75
2023-03-24T03:18:16.334Z,99271.48
2023-03-24T03:20:53.884Z,99271.39
2023-03-24T03:23:32.982Z,99266.55
2023-03-24T03:26:05.467Z,99261.21
2023-03-24T03:28:39.762Z,99257.63
2023-03-24T03:31:15.187Z,99253.29
2023-03-24T03:33:51.499Z,99251.40
2023-03-24T03:36:34.676Z,99247.80
2023-03-24T03:39:07.216Z,99246.73
2023-03-24T03:41:36.439Z,99244.98
2023-03-24T03:44:06.490Z,99242.46
2023-03-24T03:46:37.335Z,99241.52
2023-03-24T03:49:09.236Z,99241.02
2023-03-24T03:51:39.798Z,99236.84
2023-03-24T03:54:12.058Z,99232.23
2023-03-24T03:56:43.204Z,99228.48
2023-03-24T03:59:29.361Z,99225.24
2023-03-24T04:01:59.836Z,99222.77
2023-03-24T04:04:50.699Z,99216.16
2023-03-24T04:07:41.287Z,99212.77
2023-03-24T04:10:10.182Z,99211.23
2023-03-24T04:17:02.966Z,99219.20
2023-03-24T04:19:35.779Z,99209.14
2023-03-24T04:22:39.118Z,99200.55
2023-03-24T04:25:07.596Z,99197.80
2023-03-24T04:27:57.447Z,99193.83
2023-03-24T04:30:37.727Z,99185.91
2023-03-24T04:33:18.218Z,99180.39
2023-03-24T04:36:02.131Z,99177.41
2023-03-24T04:38:33.006Z,99177.77
2023-03-24T04:41:04.346Z,99181.74
2023-03-24T04:43:37.505Z,99177.74
2023-03-24T04:46:09.670Z,99175.00
2023-03-24T04:48:38.923Z,99170.38
2023-03-24T04:51:10.877Z,99166.75
2023-03-24T04:53:40.172Z,99165.13
2023-03-24T04:56:30.083Z,99164.15
2023-03-24T04:58:59.075Z,99159.39
2023-03-24T05:01:30.627Z,99158.07
2023-03-24T05:04:01.534Z,99153.94
2023-03-24T05:06:31.358Z,99151.76
2023-03-24T05:09:01.143Z,99148.94
2023-03-24T05:11:54.490Z,99148.19
2023-03-24T05:14:23.833Z,99143.58
2023-03-24T05:16:52.922Z,99144.17
2023-03-24T05:19:22.030Z,99143.96
2023-03-24T05:21:50.568Z,99137.62
2023-03-24T05:24:19.077Z,99142.02
2023-03-24T05:26:47.652Z,99141.65
2023-03-24T05:29:16.874Z,99139.40
2023-03-24T05:31:46.402Z,99135.33
2023-03-24T05:34:14.934Z,99135.70
2023-03-24T05:36:44.432Z,99128.60
2023-03-24T05:39:13.642Z,99130.32
2023-03-24T05:41:42.738Z,99134.25
2023-03-24T05:44:11.316Z,99138.20
2023-03-24T05:46:40.025Z,99132.70
2023-03-24T05:49:13.622Z,99126.10
2023-03-24T05:51:42.054Z,99120.34
2023-03-24T05:54:10.705Z,99118.00
2023-03-24T05:56:39.080Z,99114.90
2023-03-24T05:59:07.813Z,99112.27
2023-03-24T06:01:36.658Z,99112.12
2023-03-24T06:04:05.419Z,99108.02
2023-03-24T06:06:34.354Z,99106.16
2023-03-24T06:09:04.724Z,99101.30
2023-03-24T06:11:33.632Z,99096.64
2023-03-24T06:14:02.829Z,99093.23
2023-03-24T06:16:34.478Z,99091.19
2023-03-24T06:19:03.352Z,99085.45
2023-03-24T06:21:35.220Z,99085.69
2023-03-24T06:24:04.723Z,99086.52
2023-03-24T06:26:33.114Z,99080.57
2023-03-24T06:29:02.689Z,99076.04
2023-03-24T06:31:33.505Z,99072.65
2023-03-24T06:34:02.429Z,99067.14
2023-03-24T06:36:31.996Z,99068.81
2023-03-24T06:39:06.109Z,99072.34
2023-03-24T06:41:35.841Z,99072.64
2023-03-24T06:44:04.353Z,99068.95
2023-03-24T06:46:33.791Z,99070.39
2023-03-24T06:49:02.188Z,99072.02
2023-03-24T06:51:31.693Z,99074.37
2023-03-24T06:54:00.561Z,99071.34
2023-03-24T06:56:29.390Z,99070.30
2023-03-24T06:58:57.985Z,99074.12
2023-03-24T07:01:27.513Z,99075.33
2023-03-24T07:03:57.158Z,99076.83
2023-03-24T07:06:25.676Z,99074.46
2023-03-24T07:08:54.947Z,99075.52
2023-03-24T07:11:23.549Z,99075.15
2023-03-24T07:13:52.166Z,99070.48
2023-03-24T07:16:21.110Z,99071.00
2023-03-24T07:18:49.595Z,99065.20
2023-03-24T07:21:18.777Z,99057.27
2023-03-24T07:23:47.136Z,99061.48
2023-03-24T07:26:16.129Z,99055.00
2023-03-24T07:28:44.532Z,99052.77
2023-03-24T07:31:13.144Z,99038.33
2023-03-24T07:33:41.781Z,99029.35
2023-03-24T07:36:10.586Z,99020.84
2023-03-24T07:38:39.022Z,99026.00
2023-03-24T07:41:07.356Z,99019.94
2023-03-24T07:43:35.910Z,99024.75
2023-03-24T07:46:04.430Z,99031.60
2023-03-24T07:48:33.453Z,99034.55
2023-03-24T07:51:02.025Z,99035.83
2023-03-24T07:53:30.905Z,99032.05
2023-03-24T07:56:00.032Z,99028.24
2023-03-24T07:58:28.339Z,99027.45
2023-03-24T08:00:57.223Z,99028.07
2023-03-24T08:03:28.481Z,99027.20
2023-03-24T08:05:57.045Z,99019.80
2023-03-24T08:08:25.478Z,99021.27
2023-03-24T08:10:54.062Z,99023.95
2023-03-24T08:13:23.197Z,99019.92
2023-03-24T08:15:53.626Z,99014.98
2023-03-24T08:18:23.154Z,99016.77
2023-03-24T08:20:57.103Z,99016.52
2023-03-24T08:23:26.019Z,99022.16
2023-03-24T08:25:55.105Z,99015.35
2023-03-24T08:28:24.354Z,99012.37
2023-03-24T08:30:52.902Z,99012.98
2023-03-24T08:33:21.535Z,99007.67
2023-03-24T08:35:50.212Z,99002.31
2023-03-24T08:38:23.495Z,98996.59
2023-03-24T08:40:52.653Z,98996.08
2023-03-24T08:43:23.484Z,98997.79
2023-03-24T08:45:52.475Z,98993.58
2023-03-24T08:48:22.077Z,98986.84
2023-03-24T08:50:50.794Z,98979.59
2023-03-24T08:53:19.291Z,98977.84
2023-03-24T08:55:48.480Z,98977.61
2023-03-24T08:58:20.626Z,98979.29
2023-03-24T09:00:49.780Z,98976.33
2023-03-24T09:03:22.901Z,98973.73
2023-03-24T09:05:51.585Z,98972.21
2023-03-24T09:08:20.393Z,98966.55
2023-03-24T09:10:49.412Z,98958.70
2023-03-24T09:13:19.317Z,98958.66
2023-03-24T09:15:50.749Z,98962.46
2023-03-24T09:18:21.388Z,98961.64
2023-03-24T09:20:51.377Z,98960.66
2023-03-24T09:23:21.824Z,98958.66
2023-03-24T09:25:54.172Z,98951.70
2023-03-24T09:28:23.389Z,98951.40
2023-03-24T09:30:58.342Z,98948.20
2023-03-24T09:33:27.193Z,98953.73
2023-03-24T09:36:01.256Z,98956.34
2023-03-24T09:38:31.150Z,98956.84
2023-03-24T09:41:03.212Z,98951.41
2023-03-24T09:43:45.480Z,98944.85
2023-03-24T09:46:43.666Z,98946.66
2023-03-24T09:49:25.474Z,98938.42
2023-03-24T09:52:05.818Z,98930.50
2023-03-24T09:54:55.342Z,98929.67
2023-03-24T09:57:29.166Z,98923.51
2023-03-24T09:59:57.996Z,98918.31
2023-03-24T10:02:31.992Z,98914.42
2023-03-24T10:05:00.823Z,98911.94
2023-03-24T10:07:47.280Z,98908.61
2023-03-24T10:10:34.072Z,98901.55
2023-03-24T10:13:22.124Z,98900.26
2023-03-24T10:16:32.310Z,98903.95
2023-03-24T10:19:29.963Z,98894.57
2023-03-24T10:22:31.673Z,98890.81
2023-03-24T10:25:24.333Z,98888.11
2023-03-24T10:28:06.031Z,98888.38
2023-03-24T10:30:41.865Z,98881.59
2023-03-24T10:33:32.380Z,98876.37
2023-03-24T10:36:11.871Z,98878.84
2023-03-24T10:38:40.897Z,98877.60
2023-03-24T10:41:19.557Z,98882.36
2023-03-24T10:43:51.146Z,98882.80
2023-03-24T10:46:26.400Z,98870.04
2023-03-24T10:49:12.893Z,98871.20
2023-03-24T10:51:49.874Z,98874.83
2023-03-24T10:54:20.843Z,98875.76
2023-03-24T10:57:06.465Z,98868.07
2023-03-24T10:59:51.069Z,98876.45
2023-03-24T11:02:24.778Z,98876.38
2023-03-24T11:04:59.691Z,98875.36
2023-03-24T11:07:46.073Z,98876.09
2023-03-24T11:10:17.624Z,98872.77
2023-03-24T11:12:58.074Z,98876.23
2023-03-24T11:15:30.670Z,98878.85
2023-03-24T11:18:16.604Z,98883.62
2023-03-24T11:20:48.544Z,98876.35
2023-03-24T11:23:35.732Z,98876.50
2023-03-24T11:26:23.052Z,98875.81
2023-03-24T11:29:01.456Z,98874.98
2023-03-24T11:31:32.697Z,98868.16
2023-03-24T11:34:09.692Z,98870.48
2023-03-24T11:36:45.380Z,98872.84
2023-03-24T11:39:19.549Z,98870.63
2023-03-24T11:42:02.166Z,98874.89
2023-03-24T11:44:42.373Z,98873.22
2023-03-24T11:47:25.339Z,98875.19
2023-03-24T11:50:03.615Z,98870.38
2023-03-24T11:52:39.847Z,98869.80
2023-03-24T11:55:38.004Z,98867.08
2023-03-24T11:58:36.066Z,98867.63
2023-03-24T12:01:20.630Z,98869.31
2023-03-24T12:04:08.684Z,98862.63
2023-03-24T12:06:49.238Z,98857.63
2023-03-24T12:09:27.834Z,98851.80
2023-03-24T12:12:14.372Z,98845.13
2023-03-24T12:15:27.283Z,98842.22
2023-03-24T12:18:17.027Z,98837.14
2023-03-24T12:20:59.544Z,98834.95
2023-03-24T12:23:55.637Z,98832.10
2023-03-24T12:26:26.384Z,98829.36
2023-03-24T12:29:16.874Z,98821.23
2023-03-24T12:32:14.356Z,98819.84
2023-03-24T12:35:00.405Z,98818.08
2023-03-24T12:37:43.422Z,98816.95
2023-03-24T12:40:32.436Z,98815.30
2023-03-24T12:43:26.138Z,98816.39
2023-03-24T12:45:57.644Z,98815.05
2023-03-24T12:49:03.094Z,98815.65
2023-03-24T12:51:53.445Z,98811.20
2023-03-24T12:54:36.674Z,98810.20
2023-03-24T12:57:12.037Z,98804.44
2023-03-24T12:59:58.531Z,98805.42
2023-03-24T13:02:35.935Z,98807.67
2023-03-24T13:05:17.060Z,98806.64
2023-03-24T13:07:48.018Z,98793.83
2023-03-24T13:10:26.451Z,98795.61
2023-03-24T13:13:04.251Z,98797.07
2023-03-24T13:15:49.067Z,98790.70
2023-03-24T13:18:38.056Z,98789.54
2023-03-24T13:21:12.418Z,98794.98
2023-03-24T13:23:58.014Z,98799.99
2023-03-24T13:26:29.742Z,98791.33
2023-03-24T13:29:21.311Z,98796.60
2023-03-24T13:32:05.617Z,98791.25
2023-03-24T13:34:41.548Z,98793.88
2023-03-24T13:37:24.823Z,98791.39
2023-03-24T13:39:58.784Z,98789.21
2023-03-24T13:42:43.942Z,98788.27
2023-03-24T13:45:40.192Z,98790.08
2023-03-24T13:48:29.561Z,98785.95
2023-03-24T13:51:08.324Z,98779.09
2023-03-24T13:53:50.288Z,98776.13
2023-03-24T13:56:36.282Z,98771.73
2023-03-24T13:59:32.327Z,98769.30
2023-03-24T14:02:15.901Z,98772.13
2023-03-24T14:05:06.957Z,98773.23
2023-03-24T14:07:47.475Z,98772.80
2023-03-24T14:10:20.852Z,98772.05
2023-03-24T14:12:59.008Z,98767.86
2023-03-24T14:15:32.410Z,98764.81
2023-03-24T14:18:37.886Z,98771.58
2023-03-24T14:21:08.803Z,98764.70
2023-03-24T14:23:40.510Z,98758.27
2023-03-24T14:26:34.834Z,98754.65
2023-03-24T14:29:04.085Z,98762.70
2023-03-24T14:31:36.527Z,98765.39
2023-03-24T14:34:21.488Z,98766.80
2023-03-24T14:37:00.538Z,98764.23
2023-03-24T14:39:48.030Z,98764.23
2023-03-24T14:42:48.846Z,98769.34
2023-03-24T14:45:52.150Z,98763.09
2023-03-24T14:48:38.300Z,98755.36
2023-03-24T14:51:12.236Z,98740.17
2023-03-24T14:53:41.866Z,98748.45
2023-03-24T14:56:15.786Z,98750.67
2023-03-24T14:58:49.119Z,98753.67
2023-03-24T15:01:18.781Z,98751.70
2023-03-24T15:04:06.465Z,98755.18
2023-03-24T15:06:47.306Z,98747.56
2023-03-24T15:09:18.740Z,98749.02
2023-03-24T15:16:30.011Z,98751.19
2023-03-24T15:19:09.132Z,98757.96
2023-03-24T15:21:49.672Z,98757.92
2023-03-24T15:24:41.903Z,98754.25
2023-03-24T15:27:38.644Z,98753.13
2023-03-24T15:30:15.320Z,98751.44
2023-03-24T15:32:48.012Z,98743.09
2023-03-24T15:35:20.745Z,98750.14
2023-03-24T15:37:56.846Z,98752.42
2023-03-24T15:40:29.895Z,98754.75
2023-03-24T15:43:05.154Z,98751.79
2023-03-24T15:45:38.110Z,98750.63
2023-03-24T15:48:16.384Z,98753.66
2023-03-24T15:51:01.443Z,98754.21
2023-03-24T15:53:40.102Z,98752.73
2023-03-24T15:56:27.196Z,98755.16
2023-03-24T15:59:06.854Z,98780.30
2023-03-24T16:01:38.927Z,98811.01
2023-03-24T16:04:14.979Z,98822.52
2023-03-24T16:06:50.089Z,98810.12
2023-03-24T16:09:22.634Z,98811.27
2023-03-24T16:12:21.929Z,98812.08
2023-03-24T16:14:50.619Z,98809.80
2023-03-24T16:17:19.469Z,98803.52
2023-03-24T16:19:47.902Z,98804.82
2023-03-24T16:22:16.416Z,98805.54
2023-03-24T16:24:45.699Z,98812.14
2023-03-24T16:27:15.799Z,98810.27
2023-03-24T16:29:44.759Z,98801.60
2023-03-24T16:32:13.723Z,98806.33
2023-03-24T16:34:42.561Z,98813.02
2023-03-24T16:37:10.974Z,98818.64
2023-03-24T16:39:40.604Z,98820.21
2023-03-24T16:42:10.050Z,98823.60
2023-03-24T16:44:39.251Z,98826.61
2023-03-24T16:47:11.895Z,98826.61
2023-03-24T16:49:40.584Z,98822.91
2023-03-24T16:52:16.822Z,98825.98
2023-03-24T16:54:46.671Z,98832.30
2023-03-24T16:57:16.000Z,98828.13
2023-03-24T16:59:44.522Z,98832.20
2023-03-24T17:02:14.354Z,98842.35
2023-03-24T17:04:43.943Z,98839.47
2023-03-24T17:07:12.464Z,98840.30
2023-03-24T17:09:41.191Z,98839.27
2023-03-24T17:12:11.335Z,98849.60
2023-03-24T17:14:41.061Z,98855.88
2023-03-24T17:17:13.388Z,98864.77
2023-03-24T17:19:43.390Z,98873.69
2023-03-24T17:22:18.103Z,98880.82
2023-03-24T17:24:48.562Z,98887.60
2023-03-24T17:27:20.633Z,98892.54
2023-03-24T17:29:49.785Z,98892.53
2023-03-24T17:32:20.524Z,98887.68
2023-03-24T17:34:52.415Z,98888.82
2023-03-24T17:37:21.064Z,98890.96
2023-03-24T17:39:52.199Z,98896.13
2023-03-24T17:42:21.127Z,98908.38
2023-03-24T17:44:51.620Z,98911.09
2023-03-24T17:47:21.577Z,98912.97
2023-03-24T17:49:51.145Z,98920.97
2023-03-24T17:52:23.618Z,98920.95
2023-03-24T17:54:57.783Z,98925.23
2023-03-24T17:57:29.639Z,98918.98
2023-03-24T18:00:01.006Z,98912.02
2023-03-24T18:02:31.350Z,98897.78
2023-03-24T18:05:02.243Z,98900.32
2023-03-24T18:07:31.479Z,98893.41
2023-03-24T18:10:03.090Z,98885.90
2023-03-24T18:12:39.723Z,98891.41
2023-03-24T18:15:09.684Z,98884.42
2023-03-24T18:17:45.592Z,98879.87
2023-03-24T18:20:17.183Z,98871.15
2023-03-24T18:22:47.696Z,98870.83
2023-03-24T18:25:21.755Z,98865.38
2023-03-24T18:27:59.431Z,98866.89
2023-03-24T18:30:33.623Z,98872.88
2023-03-24T18:33:03.649Z,98880.16
2023-03-24T18:35:36.135Z,98881.86
2023-03-24T18:38:06.158Z,98882.94
2023-03-24T18:40:35.715Z,98884.98
2023-03-24T18:43:05.778Z,98899.23
2023-03-24T18:45:36.665Z,98910.02
2023-03-24T18:48:06.806Z,98921.12
2023-03-24T18:50:41.570Z,98935.09
2023-03-24T18:53:11.574Z,98935.86
2023-03-24T18:55:46.961Z,98949.95
2023-03-24T18:58:19.213Z,98950.75
2023-03-24T19:00:51.905Z,98956.78
2023-03-24T19:03:24.651Z,98964.68
2023-03-24T19:05:55.310Z,98977.34
2023-03-24T19:08:24.911Z,98985.05
2023-03-24T19:10:57.910Z,98989.09
2023-03-24T19:13:28.063Z,98985.86
2023-03-24T19:16:00.585Z,98981.63
2023-03-24T19:18:30.371Z,98981.50
2023-03-24T19:21:02.636Z,98978.85
2023-03-24T19:23:33.152Z,98979.45
2023-03-24T19:26:04.577Z,98978.10
2023-03-24T19:28:37.738Z,98980.75
2023-03-24T19:31:11.976Z,98975.61
2023-03-24T19:33:42.180Z,98974.65
2023-03-24T19:36:19.268Z,98975.55
2023-03-24T19:38:50.180Z,98981.17
2023-03-24T19:41:20.176Z,98974.95
2023-03-24T19:43:50.179Z,98974.55
2023-03-24T19:46:22.151Z,98974.30
2023-03-24T19:48:52.737Z,98977.63
2023-03-24T19:51:25.061Z,98975.30
2023-03-24T19:53:57.128Z,98979.08
2023-03-24T19:56:27.835Z,98985.95
2023-03-24T19:58:59.358Z,98982.20
2023-03-24T20:01:35.913Z,98982.45
2023-03-24T20:04:11.310Z,98990.00
2023-03-24T20:06:44.811Z,98993.47
2023-03-24T20:09:17.351Z,98995.99
2023-03-24T20:11:56.867Z,98993.55
2023-03-24T20:14:32.942Z,98993.23
2023-03-24T20:17:05.135Z,98992.17
2023-03-24T20:19:41.069Z,98996.84
2023-03-24T20:22:16.474Z,99001.89
2023-03-24T20:24:48.455Z,99004.39
2023-03-24T20:27:20.547Z,99009.52
2023-03-24T20:29:53.240Z,99013.48
2023-03-24T20:32:24.522Z,99019.63
2023-03-24T20:34:57.830Z,99024.61
2023-03-24T20:37:32.083Z,99024.93
2023-03-24T20:40:08.034Z,99030.61
2023-03-24T20:42:40.227Z,99032.02
2023-03-24T20:45:12.917Z,99022.06
2023-03-24T20:47:47.463Z,99013.98
2023-03-24T20:50:21.585Z,99011.98
2023-03-24T20:52:58.993Z,99011.11
2023-03-24T20:55:35.295Z,99014.55
2023-03-24T20:58:09.141Z,99019.48
2023-03-24T21:00:42.801Z,99025.27
2023-03-24T21:03:13.929Z,99029.36
2023-03-24T21:05:43.412Z,99028.96
2023-03-24T21:08:14.676Z,99029.55
2023-03-24T21:10:45.691Z,99023.86
2023-03-24T21:13:21.674Z,99020.89
2023-03-24T21:15:54.448Z,99025.84
2023-03-24T21:18:28.951Z,99032.88
2023-03-24T21:21:04.510Z,99036.30
2023-03-24T21:23:39.985Z,99044.02
2023-03-24T21:26:16.970Z,99046.54
2023-03-24T21:28:47.745Z,99042.98
2023-03-24T21:31:21.958Z,99039.21
2023-03-24T21:33:53.631Z,99037.45
2023-03-24T21:36:26.838Z,99027.89
2023-03-24T21:38:56.948Z,99029.11
2023-03-24T21:41:26.679Z,99036.36
2023-03-24T21:44:00.979Z,99034.41
2023-03-24T21:46:33.480Z,99033.77
2023-03-24T21:49:15.491Z,99025.70
2023-03-24T21:52:10.484Z,99030.42
2023-03-24T21:54:46.364Z,99027.71
2023-03-24T21:57:18.328Z,99028.40
2023-03-24T21:59:47.867Z,99033.23
2023-03-24T22:02:19.676Z,99041.94
2023-03-24T22:04:49.209Z,99047.80
2023-03-24T22:07:18.911Z,99052.52
2023-03-24T22:09:52.123Z,99057.77
2023-03-24T22:12:40.103Z,99057.85
2023-03-24T22:15:13.454Z,99054.95
2023-03-24T22:17:42.248Z,99053.51
2023-03-24T22:20:13.939Z,99053.88
2023-03-24T22:22:43.477Z,99058.35
2023-03-24T22:25:19.432Z,99059.98
2023-03-24T22:27:53.013Z,99062.31
2023-03-24T22:30:42.307Z,99061.56
2023-03-24T22:33:15.662Z,99055.55
2023-03-24T22:35:44.590Z,99059.58
2023-03-24T22:38:15.552Z,99059.25
2023-03-24T22:40:50.517Z,99059.05
2023-03-24T22:43:22.038Z,99065.73
2023-03-24T22:45:50.777Z,99068.74
2023-03-24T22:48:21.243Z,99070.42
2023-03-24T22:50:50.234Z,99064.41
2023-03-24T22:53:19.209Z,99058.52
2023-03-24T22:55:48.664Z,99056.55
2023-03-24T22:58:18.440Z,99050.64
2023-03-24T23:00:51.042Z,99053.84
2023-03-24T23:03:19.888Z,99052.86
2023-03-24T23:05:48.738Z,99049.77
2023-03-24T23:08:20.702Z,99050.84
2023-03-24T23:10:49.655Z,99054.30
2023-03-24T23:14:05.242Z,99060.39
2023-03-24T23:16:38.366Z,99062.71
2023-03-24T23:19:09.397Z,99071.96
2023-03-24T23:21:38.661Z,99078.61
2023-03-24T23:24:07.813Z,99084.27
2023-03-24T23:26:37.209Z,99083.01
2023-03-24T23:29:06.578Z,99087.16
2023-03-24T23:31:36.880Z,99089.94
2023-03-24T23:34:11.820Z,99091.06
2023-03-24T23:36:45.110Z,99090.10
2023-03-24T23:39:14.715Z,99085.96
2023-03-24T23:41:43.843Z,99080.58
2023-03-24T23:44:15.696Z,99083.20
2023-03-24T23:46:44.708Z,99085.60
2023-03-24T23:49:13.546Z,99081.27
2023-03-24T23:51:42.366Z,99081.27
2023-03-24T23:54:11.281Z,99086.50
2023-03-24T23:56:40.069Z,99085.63
2023-03-24T23:59:10.264Z,99075.09
